sensor_id;sensor_type;location;lat;lon;timestamp;temperature;humidity
10848;DHT22;5477;48.806;9.154;2022-10-17T00:00:23;13.40;99.90
10848;DHT22;5477;48.806;9.154;2022-10-17T00:02:53;13.40;99.90
10848;DHT22;5477;48.806;9.154;2022-10-17T00:05:22;13.40;99.90
10848;DHT22;5477;48.806;9.154;2022-10-17T00:07:50;13.30;99.90
10848;DHT22;5477;48.806;9.154;2022-10-17T00:10:19;13.20;99.90
10848;DHT22;5477;48.806;9.154;2022-10-17T00:12:47;13.10;99.90
10848;DHT22;5477;48.806;9.154;2022-10-17T00:15:18;13.00;99.90
10848;DHT22;5477;48.806;9.154;2022-10-17T00:17:46;12.90;99.90
10848;DHT22;5477;48.806;9.154;2022-10-17T00:20:16;12.90;99.90
10848;DHT22;5477;48.806;9.154;2022-10-17T00:22:44;12.90;99.90
10848;DHT22;5477;48.806;9.154;2022-10-17T00:25:12;12.90;99.90
10848;DHT22;5477;48.806;9.154;2022-10-17T00:27:40;12.90;99.90
10848;DHT22;5477;48.806;9.154;2022-10-17T00:30:12;13.00;99.90
10848;DHT22;5477;48.806;9.154;2022-10-17T00:32:41;13.00;99.90
10848;DHT22;5477;48.806;9.154;2022-10-17T00:35:09;13.00;99.90
10848;DHT22;5477;48.806;9.154;2022-10-17T00:37:37;13.00;99.90
10848;DHT22;5477;48.806;9.154;2022-10-17T00:40:06;13.00;99.90
10848;DHT22;5477;48.806;9.154;2022-10-17T00:42:34;13.00;99.90
10848;DHT22;5477;48.806;9.154;2022-10-17T00:45:11;12.80;99.90
10848;DHT22;5477;48.806;9.154;2022-10-17T00:47:48;12.70;99.90
10848;DHT22;5477;48.806;9.154;2022-10-17T00:50:18;12.70;99.90
10848;DHT22;5477;48.806;9.154;2022-10-17T00:52:49;12.60;99.90
10848;DHT22;5477;48.806;9.154;2022-10-17T00:55:23;12.60;99.90
10848;DHT22;5477;48.806;9.154;2022-10-17T00:57:52;12.60;99.90
10848;DHT22;5477;48.806;9.154;2022-10-17T01:00:20;12.60;99.90
10848;DHT22;5477;48.806;9.154;2022-10-17T01:02:50;12.70;99.90
10848;DHT22;5477;48.806;9.154;2022-10-17T01:05:18;12.70;99.90
10848;DHT22;5477;48.806;9.154;2022-10-17T01:07:48;12.80;99.90
10848;DHT22;5477;48.806;9.154;2022-10-17T01:10:20;12.90;99.90
10848;DHT22;5477;48.806;9.154;2022-10-17T01:12:56;12.90;99.90
10848;DHT22;5477;48.806;9.154;2022-10-17T01:15:35;12.80;99.90
10848;DHT22;5477;48.806;9.154;2022-10-17T01:18:14;12.80;99.90
10848;DHT22;5477;48.806;9.154;2022-10-17T01:27:11;12.90;99.90
10848;DHT22;5477;48.806;9.154;2022-10-17T01:29:50;12.80;99.90
10848;DHT22;5477;48.806;9.154;2022-10-17T01:32:23;12.80;99.90
10848;DHT22;5477;48.806;9.154;2022-10-17T01:34:58;12.80;99.90
10848;DHT22;5477;48.806;9.154;2022-10-17T01:37:31;12.80;99.90
10848;DHT22;5477;48.806;9.154;2022-10-17T01:40:05;12.90;99.90
10848;DHT22;5477;48.806;9.154;2022-10-17T01:42:40;12.80;99.90
10848;DHT22;5477;48.806;9.154;2022-10-17T01:45:13;12.80;99.90
10848;DHT22;5477;48.806;9.154;2022-10-17T01:47:45;12.80;99.90
10848;DHT22;5477;48.806;9.154;2022-10-17T01:50:19;12.90;99.90
10848;DHT22;5477;48.806;9.154;2022-10-17T01:52:52;12.90;99.90
10848;DHT22;5477;48.806;9.154;2022-10-17T01:55:24;12.70;99.90
10848;DHT22;5477;48.806;9.154;2022-10-17T01:57:56;12.60;99.90
10848;DHT22;5477;48.806;9.154;2022-10-17T02:00:26;12.50;99.90
10848;DHT22;5477;48.806;9.154;2022-10-17T02:03:00;12.50;99.90
10848;DHT22;5477;48.806;9.154;2022-10-17T02:05:32;12.50;99.90
10848;DHT22;5477;48.806;9.154;2022-10-17T02:08:03;12.60;99.90
10848;DHT22;5477;48.806;9.154;2022-10-17T02:10:40;12.60;99.90
10848;DHT22;5477;48.806;9.154;2022-10-17T02:13:15;12.70;99.90
10848;DHT22;5477;48.806;9.154;2022-10-17T02:16:06;12.70;99.90
10848;DHT22;5477;48.806;9.154;2022-10-17T02:19:06;12.70;99.90
10848;DHT22;5477;48.806;9.154;2022-10-17T02:21:41;12.60;99.90
10848;DHT22;5477;48.806;9.154;2022-10-17T02:24:17;12.50;99.90
10848;DHT22;5477;48.806;9.154;2022-10-17T02:26:52;12.40;99.90
10848;DHT22;5477;48.806;9.154;2022-10-17T02:29:24;12.20;99.90
10848;DHT22;5477;48.806;9.154;2022-10-17T02:31:58;12.20;99.90
10848;DHT22;5477;48.806;9.154;2022-10-17T02:34:31;12.10;99.90
10848;DHT22;5477;48.806;9.154;2022-10-17T02:37:04;12.20;99.90
10848;DHT22;5477;48.806;9.154;2022-10-17T02:39:34;12.30;99.90
10848;DHT22;5477;48.806;9.154;2022-10-17T02:42:05;12.30;99.90
10848;DHT22;5477;48.806;9.154;2022-10-17T02:44:37;12.30;99.90
10848;DHT22;5477;48.806;9.154;2022-10-17T02:47:11;12.40;99.90
10848;DHT22;5477;48.806;9.154;2022-10-17T02:49:49;12.30;99.90
10848;DHT22;5477;48.806;9.154;2022-10-17T02:52:23;12.20;99.90
10848;DHT22;5477;48.806;9.154;2022-10-17T02:54:57;12.20;99.90
10848;DHT22;5477;48.806;9.154;2022-10-17T02:57:31;12.20;99.90
10848;DHT22;5477;48.806;9.154;2022-10-17T03:00:04;12.20;99.90
10848;DHT22;5477;48.806;9.154;2022-10-17T03:02:39;12.20;99.90
10848;DHT22;5477;48.806;9.154;2022-10-17T03:05:11;12.10;99.90
10848;DHT22;5477;48.806;9.154;2022-10-17T03:07:39;12.10;99.90
10848;DHT22;5477;48.806;9.154;2022-10-17T03:10:07;12.20;99.90
10848;DHT22;5477;48.806;9.154;2022-10-17T03:12:36;12.10;99.90
10848;DHT22;5477;48.806;9.154;2022-10-17T03:15:05;12.10;99.90
10848;DHT22;5477;48.806;9.154;2022-10-17T03:17:33;12.20;99.90
10848;DHT22;5477;48.806;9.154;2022-10-17T03:20:01;12.20;99.90
10848;DHT22;5477;48.806;9.154;2022-10-17T03:22:31;12.20;99.90
10848;DHT22;5477;48.806;9.154;2022-10-17T03:25:01;12.10;99.90
10848;DHT22;5477;48.806;9.154;2022-10-17T03:27:29;12.10;99.90
10848;DHT22;5477;48.806;9.154;2022-10-17T03:29:58;12.10;99.90
10848;DHT22;5477;48.806;9.154;2022-10-17T03:32:26;12.10;99.90
10848;DHT22;5477;48.806;9.154;2022-10-17T03:34:54;12.10;99.90
10848;DHT22;5477;48.806;9.154;2022-10-17T03:37:22;12.10;99.90
10848;DHT22;5477;48.806;9.154;2022-10-17T03:39:52;12.10;99.90
10848;DHT22;5477;48.806;9.154;2022-10-17T03:42:19;12.10;99.90
10848;DHT22;5477;48.806;9.154;2022-10-17T03:44:47;12.00;99.90
10848;DHT22;5477;48.806;9.154;2022-10-17T03:47:16;12.00;99.90
10848;DHT22;5477;48.806;9.154;2022-10-17T03:49:45;12.00;99.90
10848;DHT22;5477;48.806;9.154;2022-10-17T03:52:14;12.10;99.90
10848;DHT22;5477;48.806;9.154;2022-10-17T03:54:42;12.10;99.90
10848;DHT22;5477;48.806;9.154;2022-10-17T03:57:11;12.10;99.90
10848;DHT22;5477;48.806;9.154;2022-10-17T03:59:39;12.10;99.90
10848;DHT22;5477;48.806;9.154;2022-10-17T04:02:13;12.10;99.90
10848;DHT22;5477;48.806;9.154;2022-10-17T04:04:42;12.10;99.90
10848;DHT22;5477;48.806;9.154;2022-10-17T04:07:10;12.10;99.90
10848;DHT22;5477;48.806;9.154;2022-10-17T04:09:42;12.20;99.90
10848;DHT22;5477;48.806;9.154;2022-10-17T04:12:14;12.20;99.90
10848;DHT22;5477;48.806;9.154;2022-10-17T04:14:42;12.10;99.90
10848;DHT22;5477;48.806;9.154;2022-10-17T04:17:10;12.10;99.90
10848;DHT22;5477;48.806;9.154;2022-10-17T04:19:38;12.10;99.90
10848;DHT22;5477;48.806;9.154;2022-10-17T04:22:07;12.10;99.90
10848;DHT22;5477;48.806;9.154;2022-10-17T04:24:37;12.20;99.90
10848;DHT22;5477;48.806;9.154;2022-10-17T04:27:14;12.20;99.90
10848;DHT22;5477;48.806;9.154;2022-10-17T04:29:44;12.10;99.90
10848;DHT22;5477;48.806;9.154;2022-10-17T04:32:19;12.20;99.90
10848;DHT22;5477;48.806;9.154;2022-10-17T04:34:53;12.20;99.90
10848;DHT22;5477;48.806;9.154;2022-10-17T04:37:22;12.20;99.90
10848;DHT22;5477;48.806;9.154;2022-10-17T04:39:52;12.20;99.90
10848;DHT22;5477;48.806;9.154;2022-10-17T04:42:22;12.30;99.90
10848;DHT22;5477;48.806;9.154;2022-10-17T04:44:52;12.30;99.90
10848;DHT22;5477;48.806;9.154;2022-10-17T04:47:24;12.30;99.90
10848;DHT22;5477;48.806;9.154;2022-10-17T04:49:52;12.40;99.90
10848;DHT22;5477;48.806;9.154;2022-10-17T04:52:21;12.40;99.90
10848;DHT22;5477;48.806;9.154;2022-10-17T04:54:51;12.40;99.90
10848;DHT22;5477;48.806;9.154;2022-10-17T04:57:21;12.40;99.90
10848;DHT22;5477;48.806;9.154;2022-10-17T05:00:11;12.40;99.90
10848;DHT22;5477;48.806;9.154;2022-10-17T05:02:53;12.30;99.90
10848;DHT22;5477;48.806;9.154;2022-10-17T05:05:21;12.30;99.90
10848;DHT22;5477;48.806;9.154;2022-10-17T05:07:51;12.20;99.90
10848;DHT22;5477;48.806;9.154;2022-10-17T05:10:23;12.20;99.90
10848;DHT22;5477;48.806;9.154;2022-10-17T05:12:54;12.20;99.90
10848;DHT22;5477;48.806;9.154;2022-10-17T05:15:26;12.20;99.90
10848;DHT22;5477;48.806;9.154;2022-10-17T05:17:55;12.30;99.90
10848;DHT22;5477;48.806;9.154;2022-10-17T05:20:25;12.30;99.90
10848;DHT22;5477;48.806;9.154;2022-10-17T05:22:53;12.30;99.90
10848;DHT22;5477;48.806;9.154;2022-10-17T05:25:22;12.40;99.90
10848;DHT22;5477;48.806;9.154;2022-10-17T05:27:50;12.40;99.90
10848;DHT22;5477;48.806;9.154;2022-10-17T05:30:19;12.40;99.90
10848;DHT22;5477;48.806;9.154;2022-10-17T05:32:52;12.40;99.90
10848;DHT22;5477;48.806;9.154;2022-10-17T05:35:21;12.40;99.90
10848;DHT22;5477;48.806;9.154;2022-10-17T05:37:51;12.50;99.90
10848;DHT22;5477;48.806;9.154;2022-10-17T05:40:20;12.50;99.90
10848;DHT22;5477;48.806;9.154;2022-10-17T05:42:51;12.40;99.90
10848;DHT22;5477;48.806;9.154;2022-10-17T05:45:22;12.40;99.90
10848;DHT22;5477;48.806;9.154;2022-10-17T05:47:50;12.30;99.90
10848;DHT22;5477;48.806;9.154;2022-10-17T05:50:19;12.30;99.90
10848;DHT22;5477;48.806;9.154;2022-10-17T05:53:03;12.20;99.90
10848;DHT22;5477;48.806;9.154;2022-10-17T05:55:37;12.10;99.90
10848;DHT22;5477;48.806;9.154;2022-10-17T05:58:06;12.10;99.90
10848;DHT22;5477;48.806;9.154;2022-10-17T06:00:43;12.10;99.90
10848;DHT22;5477;48.806;9.154;2022-10-17T06:03:16;12.10;99.90
10848;DHT22;5477;48.806;9.154;2022-10-17T06:05:45;12.10;99.90
10848;DHT22;5477;48.806;9.154;2022-10-17T06:08:13;12.20;99.90
10848;DHT22;5477;48.806;9.154;2022-10-17T06:10:42;12.20;99.90
10848;DHT22;5477;48.806;9.154;2022-10-17T06:13:10;12.20;99.90
10848;DHT22;5477;48.806;9.154;2022-10-17T06:15:39;12.20;99.90
10848;DHT22;5477;48.806;9.154;2022-10-17T06:18:09;12.20;99.90
10848;DHT22;5477;48.806;9.154;2022-10-17T06:20:39;12.10;99.90
10848;DHT22;5477;48.806;9.154;2022-10-17T06:23:13;12.20;99.90
10848;DHT22;5477;48.806;9.154;2022-10-17T06:25:50;12.20;99.90
10848;DHT22;5477;48.806;9.154;2022-10-17T06:28:18;12.20;99.90
10848;DHT22;5477;48.806;9.154;2022-10-17T06:30:46;12.20;99.90
10848;DHT22;5477;48.806;9.154;2022-10-17T06:33:16;12.30;99.90
10848;DHT22;5477;48.806;9.154;2022-10-17T06:35:50;12.40;99.90
10848;DHT22;5477;48.806;9.154;2022-10-17T06:38:18;12.40;99.90
10848;DHT22;5477;48.806;9.154;2022-10-17T06:40:48;12.50;99.90
10848;DHT22;5477;48.806;9.154;2022-10-17T06:43:15;12.50;99.90
10848;DHT22;5477;48.806;9.154;2022-10-17T06:46:15;12.60;99.90
10848;DHT22;5477;48.806;9.154;2022-10-17T06:48:54;12.60;99.90
10848;DHT22;5477;48.806;9.154;2022-10-17T06:51:35;12.80;99.90
10848;DHT22;5477;48.806;9.154;2022-10-17T06:54:06;12.90;99.90
10848;DHT22;5477;48.806;9.154;2022-10-17T06:56:46;12.90;99.90
10848;DHT22;5477;48.806;9.154;2022-10-17T06:59:26;12.90;99.90
10848;DHT22;5477;48.806;9.154;2022-10-17T07:02:07;13.00;99.90
10848;DHT22;5477;48.806;9.154;2022-10-17T07:04:37;13.10;99.90
10848;DHT22;5477;48.806;9.154;2022-10-17T07:07:06;13.20;99.90
10848;DHT22;5477;48.806;9.154;2022-10-17T07:09:34;13.30;99.90
10848;DHT22;5477;48.806;9.154;2022-10-17T07:12:03;13.40;99.90
10848;DHT22;5477;48.806;9.154;2022-10-17T07:14:34;13.40;99.90
10848;DHT22;5477;48.806;9.154;2022-10-17T07:17:02;13.50;99.90
10848;DHT22;5477;48.806;9.154;2022-10-17T07:19:31;13.70;99.90
10848;DHT22;5477;48.806;9.154;2022-10-17T07:22:01;13.80;99.90
10848;DHT22;5477;48.806;9.154;2022-10-17T07:24:31;13.90;99.90
10848;DHT22;5477;48.806;9.154;2022-10-17T07:27:11;14.00;99.90
10848;DHT22;5477;48.806;9.154;2022-10-17T07:29:40;14.10;99.90
10848;DHT22;5477;48.806;9.154;2022-10-17T07:32:17;14.20;99.90
10848;DHT22;5477;48.806;9.154;2022-10-17T07:34:45;14.30;99.90
10848;DHT22;5477;48.806;9.154;2022-10-17T07:37:15;14.40;99.90
10848;DHT22;5477;48.806;9.154;2022-10-17T07:39:50;14.50;99.90
10848;DHT22;5477;48.806;9.154;2022-10-17T07:42:18;14.60;99.90
10848;DHT22;5477;48.806;9.154;2022-10-17T07:44:46;14.70;99.90
10848;DHT22;5477;48.806;9.154;2022-10-17T07:47:14;14.80;99.90
10848;DHT22;5477;48.806;9.154;2022-10-17T07:49:42;14.90;99.90
10848;DHT22;5477;48.806;9.154;2022-10-17T07:52:11;15.00;99.90
10848;DHT22;5477;48.806;9.154;2022-10-17T07:54:40;15.10;99.90
10848;DHT22;5477;48.806;9.154;2022-10-17T07:57:09;15.20;99.90
10848;DHT22;5477;48.806;9.154;2022-10-17T07:59:37;15.40;99.90
10848;DHT22;5477;48.806;9.154;2022-10-17T08:02:05;15.60;99.90
10848;DHT22;5477;48.806;9.154;2022-10-17T08:04:34;15.70;99.90
10848;DHT22;5477;48.806;9.154;2022-10-17T08:07:02;15.90;99.90
10848;DHT22;5477;48.806;9.154;2022-10-17T08:09:47;16.20;99.90
10848;DHT22;5477;48.806;9.154;2022-10-17T08:12:16;16.40;99.90
10848;DHT22;5477;48.806;9.154;2022-10-17T08:14:44;16.60;99.90
10848;DHT22;5477;48.806;9.154;2022-10-17T08:17:12;16.80;99.90
10848;DHT22;5477;48.806;9.154;2022-10-17T08:19:40;17.10;99.90
10848;DHT22;5477;48.806;9.154;2022-10-17T08:22:08;17.30;99.90
10848;DHT22;5477;48.806;9.154;2022-10-17T08:24:36;17.50;99.90
10848;DHT22;5477;48.806;9.154;2022-10-17T08:27:05;17.70;99.90
10848;DHT22;5477;48.806;9.154;2022-10-17T08:29:37;17.90;99.90
10848;DHT22;5477;48.806;9.154;2022-10-17T08:32:05;18.10;99.90
10848;DHT22;5477;48.806;9.154;2022-10-17T08:34:36;18.20;99.90
10848;DHT22;5477;48.806;9.154;2022-10-17T08:37:04;18.40;99.90
10848;DHT22;5477;48.806;9.154;2022-10-17T08:39:32;18.70;99.90
10848;DHT22;5477;48.806;9.154;2022-10-17T08:42:11;18.80;99.90
10848;DHT22;5477;48.806;9.154;2022-10-17T08:44:52;19.00;99.90
10848;DHT22;5477;48.806;9.154;2022-10-17T08:47:27;19.20;99.90
10848;DHT22;5477;48.806;9.154;2022-10-17T08:49:59;19.30;99.90
10848;DHT22;5477;48.806;9.154;2022-10-17T08:52:32;19.50;99.90
10848;DHT22;5477;48.806;9.154;2022-10-17T08:55:04;19.60;99.90
10848;DHT22;5477;48.806;9.154;2022-10-17T08:57:37;19.80;99.90
10848;DHT22;5477;48.806;9.154;2022-10-17T09:00:14;19.90;99.90
10848;DHT22;5477;48.806;9.154;2022-10-17T09:02:53;20.00;99.90
10848;DHT22;5477;48.806;9.154;2022-10-17T09:05:35;20.10;99.90
10848;DHT22;5477;48.806;9.154;2022-10-17T09:08:13;20.40;99.90
10848;DHT22;5477;48.806;9.154;2022-10-17T09:10:54;20.70;99.90
10848;DHT22;5477;48.806;9.154;2022-10-17T09:13:34;21.00;99.90
10848;DHT22;5477;48.806;9.154;2022-10-17T09:16:13;21.30;99.90
10848;DHT22;5477;48.806;9.154;2022-10-17T09:18:46;21.50;99.90
10848;DHT22;5477;48.806;9.154;2022-10-17T09:21:21;21.70;99.90
10848;DHT22;5477;48.806;9.154;2022-10-17T09:23:55;21.80;99.90
10848;DHT22;5477;48.806;9.154;2022-10-17T09:26:36;21.70;99.90
10848;DHT22;5477;48.806;9.154;2022-10-17T09:29:17;21.60;99.90
10848;DHT22;5477;48.806;9.154;2022-10-17T09:31:50;21.60;99.90
10848;DHT22;5477;48.806;9.154;2022-10-17T09:34:21;21.70;99.90
10848;DHT22;5477;48.806;9.154;2022-10-17T09:36:53;21.80;99.90
10848;DHT22;5477;48.806;9.154;2022-10-17T09:39:23;21.80;99.90
10848;DHT22;5477;48.806;9.154;2022-10-17T09:41:53;21.70;99.90
10848;DHT22;5477;48.806;9.154;2022-10-17T09:44:27;21.80;99.90
10848;DHT22;5477;48.806;9.154;2022-10-17T09:47:02;21.90;99.90
10848;DHT22;5477;48.806;9.154;2022-10-17T09:49:34;22.10;99.90
10848;DHT22;5477;48.806;9.154;2022-10-17T09:52:05;22.50;99.90
10848;DHT22;5477;48.806;9.154;2022-10-17T09:54:41;22.90;99.90
10848;DHT22;5477;48.806;9.154;2022-10-17T09:57:10;23.20;99.90
10848;DHT22;5477;48.806;9.154;2022-10-17T09:59:41;23.40;99.90
10848;DHT22;5477;48.806;9.154;2022-10-17T10:02:19;23.70;99.90
10848;DHT22;5477;48.806;9.154;2022-10-17T10:05:01;24.10;99.90
10848;DHT22;5477;48.806;9.154;2022-10-17T10:07:34;24.40;99.90
10848;DHT22;5477;48.806;9.154;2022-10-17T10:10:05;24.60;99.90
10848;DHT22;5477;48.806;9.154;2022-10-17T10:12:35;24.70;99.90
10848;DHT22;5477;48.806;9.154;2022-10-17T10:15:29;24.90;99.90
10848;DHT22;5477;48.806;9.154;2022-10-17T10:17:57;25.00;99.90
10848;DHT22;5477;48.806;9.154;2022-10-17T10:20:30;25.00;99.90
10848;DHT22;5477;48.806;9.154;2022-10-17T10:23:13;25.20;99.90
10848;DHT22;5477;48.806;9.154;2022-10-17T10:25:52;25.60;99.90
10848;DHT22;5477;48.806;9.154;2022-10-17T10:28:25;25.90;99.90
10848;DHT22;5477;48.806;9.154;2022-10-17T10:30:57;26.20;99.90
10848;DHT22;5477;48.806;9.154;2022-10-17T10:33:28;26.60;99.90
10848;DHT22;5477;48.806;9.154;2022-10-17T10:36:00;26.80;99.90
10848;DHT22;5477;48.806;9.154;2022-10-17T10:38:31;27.10;99.90
10848;DHT22;5477;48.806;9.154;2022-10-17T10:41:02;27.20;99.90
10848;DHT22;5477;48.806;9.154;2022-10-17T10:43:34;27.30;99.90
10848;DHT22;5477;48.806;9.154;2022-10-17T10:46:15;27.40;99.90
10848;DHT22;5477;48.806;9.154;2022-10-17T10:48:53;27.30;99.90
10848;DHT22;5477;48.806;9.154;2022-10-17T10:51:26;27.50;99.90
10848;DHT22;5477;48.806;9.154;2022-10-17T10:54:00;27.30;98.70
10848;DHT22;5477;48.806;9.154;2022-10-17T10:56:32;27.30;98.20
10848;DHT22;5477;48.806;9.154;2022-10-17T10:59:03;27.20;97.80
10848;DHT22;5477;48.806;9.154;2022-10-17T11:01:42;27.50;97.40
10848;DHT22;5477;48.806;9.154;2022-10-17T11:04:21;27.70;96.80
10848;DHT22;5477;48.806;9.154;2022-10-17T11:06:52;28.00;96.40
10848;DHT22;5477;48.806;9.154;2022-10-17T11:09:28;28.30;94.30
10848;DHT22;5477;48.806;9.154;2022-10-17T11:12:03;28.30;94.90
10848;DHT22;5477;48.806;9.154;2022-10-17T11:14:39;28.50;93.10
10848;DHT22;5477;48.806;9.154;2022-10-17T11:17:16;28.80;91.00
10848;DHT22;5477;48.806;9.154;2022-10-17T11:19:49;28.90;90.20
10848;DHT22;5477;48.806;9.154;2022-10-17T11:22:25;29.00;88.50
10848;DHT22;5477;48.806;9.154;2022-10-17T11:24:58;28.90;87.20
10848;DHT22;5477;48.806;9.154;2022-10-17T11:27:28;28.90;85.60
10848;DHT22;5477;48.806;9.154;2022-10-17T11:29:57;29.00;86.30
10848;DHT22;5477;48.806;9.154;2022-10-17T11:32:33;29.00;84.40
10848;DHT22;5477;48.806;9.154;2022-10-17T11:35:04;29.00;83.80
10848;DHT22;5477;48.806;9.154;2022-10-17T11:37:38;29.30;83.60
10848;DHT22;5477;48.806;9.154;2022-10-17T11:40:14;29.70;82.10
10848;DHT22;5477;48.806;9.154;2022-10-17T11:42:52;29.90;81.00
10848;DHT22;5477;48.806;9.154;2022-10-17T11:45:25;30.20;80.40
10848;DHT22;5477;48.806;9.154;2022-10-17T11:48:00;30.10;78.80
10848;DHT22;5477;48.806;9.154;2022-10-17T11:50:31;30.00;77.20
10848;DHT22;5477;48.806;9.154;2022-10-17T11:53:22;29.90;76.80
10848;DHT22;5477;48.806;9.154;2022-10-17T11:55:52;29.80;76.70
10848;DHT22;5477;48.806;9.154;2022-10-17T11:58:26;29.90;76.00
10848;DHT22;5477;48.806;9.154;2022-10-17T12:01:03;29.80;76.10
10848;DHT22;5477;48.806;9.154;2022-10-17T12:03:44;29.90;75.20
10848;DHT22;5477;48.806;9.154;2022-10-17T12:06:19;30.00;75.20
10848;DHT22;5477;48.806;9.154;2022-10-17T12:08:59;29.60;75.00
10848;DHT22;5477;48.806;9.154;2022-10-17T12:11:34;29.40;76.70
10848;DHT22;5477;48.806;9.154;2022-10-17T12:14:34;29.30;77.00
10848;DHT22;5477;48.806;9.154;2022-10-17T12:17:04;28.90;75.50
10848;DHT22;5477;48.806;9.154;2022-10-17T12:19:35;28.90;76.10
10848;DHT22;5477;48.806;9.154;2022-10-17T12:22:21;29.20;75.60
10848;DHT22;5477;48.806;9.154;2022-10-17T12:24:57;29.20;73.50
10848;DHT22;5477;48.806;9.154;2022-10-17T12:27:35;29.00;74.40
10848;DHT22;5477;48.806;9.154;2022-10-17T12:30:14;29.10;75.70
10848;DHT22;5477;48.806;9.154;2022-10-17T12:33:03;29.20;75.20
10848;DHT22;5477;48.806;9.154;2022-10-17T12:35:36;29.30;75.80
10848;DHT22;5477;48.806;9.154;2022-10-17T12:38:26;29.00;77.60
10848;DHT22;5477;48.806;9.154;2022-10-17T12:40:56;28.70;77.50
10848;DHT22;5477;48.806;9.154;2022-10-17T12:43:49;28.30;77.50
10848;DHT22;5477;48.806;9.154;2022-10-17T12:46:40;28.00;76.30
10848;DHT22;5477;48.806;9.154;2022-10-17T12:49:23;27.60;78.70
10848;DHT22;5477;48.806;9.154;2022-10-17T12:52:19;27.30;81.80
10848;DHT22;5477;48.806;9.154;2022-10-17T12:55:04;27.10;82.80
10848;DHT22;5477;48.806;9.154;2022-10-17T12:57:52;27.00;83.00
10848;DHT22;5477;48.806;9.154;2022-10-17T13:00:28;26.90;82.90
10848;DHT22;5477;48.806;9.154;2022-10-17T13:03:03;26.80;83.50
10848;DHT22;5477;48.806;9.154;2022-10-17T13:05:35;26.70;85.40
10848;DHT22;5477;48.806;9.154;2022-10-17T13:08:07;26.40;94.80
10848;DHT22;5477;48.806;9.154;2022-10-17T13:10:37;26.20;96.40
10848;DHT22;5477;48.806;9.154;2022-10-17T13:13:14;26.30;97.90
10848;DHT22;5477;48.806;9.154;2022-10-17T13:15:45;26.00;98.20
10848;DHT22;5477;48.806;9.154;2022-10-17T13:18:18;25.90;98.20
10848;DHT22;5477;48.806;9.154;2022-10-17T13:20:55;25.80;98.80
10848;DHT22;5477;48.806;9.154;2022-10-17T13:23:27;25.70;99.10
10848;DHT22;5477;48.806;9.154;2022-10-17T13:26:05;25.70;98.70
10848;DHT22;5477;48.806;9.154;2022-10-17T13:28:33;25.60;98.60
10848;DHT22;5477;48.806;9.154;2022-10-17T13:31:05;25.60;98.60
10848;DHT22;5477;48.806;9.154;2022-10-17T13:33:35;25.70;98.40
10848;DHT22;5477;48.806;9.154;2022-10-17T13:36:07;25.70;98.80
10848;DHT22;5477;48.806;9.154;2022-10-17T13:38:41;25.50;98.60
10848;DHT22;5477;48.806;9.154;2022-10-17T13:41:11;25.50;98.50
10848;DHT22;5477;48.806;9.154;2022-10-17T13:44:02;25.60;98.80
10848;DHT22;5477;48.806;9.154;2022-10-17T13:46:32;25.60;98.60
10848;DHT22;5477;48.806;9.154;2022-10-17T13:49:10;25.60;98.30
10848;DHT22;5477;48.806;9.154;2022-10-17T13:51:42;25.70;98.20
10848;DHT22;5477;48.806;9.154;2022-10-17T13:54:34;25.70;98.10
10848;DHT22;5477;48.806;9.154;2022-10-17T13:57:04;25.80;97.60
10848;DHT22;5477;48.806;9.154;2022-10-17T13:59:36;25.80;96.90
10848;DHT22;5477;48.806;9.154;2022-10-17T14:02:05;25.90;96.60
10848;DHT22;5477;48.806;9.154;2022-10-17T14:04:40;25.90;95.90
10848;DHT22;5477;48.806;9.154;2022-10-17T14:07:34;25.80;95.30
10848;DHT22;5477;48.806;9.154;2022-10-17T14:10:26;25.90;95.00
10848;DHT22;5477;48.806;9.154;2022-10-17T14:12:58;26.00;94.90
10848;DHT22;5477;48.806;9.154;2022-10-17T14:15:28;26.00;94.30
10848;DHT22;5477;48.806;9.154;2022-10-17T14:17:57;26.20;94.10
10848;DHT22;5477;48.806;9.154;2022-10-17T14:20:32;26.20;94.20
10848;DHT22;5477;48.806;9.154;2022-10-17T14:23:35;26.60;94.10
10848;DHT22;5477;48.806;9.154;2022-10-17T14:26:11;26.80;93.40
10848;DHT22;5477;48.806;9.154;2022-10-17T14:28:41;27.10;92.90
10848;DHT22;5477;48.806;9.154;2022-10-17T14:31:28;27.40;92.80
10848;DHT22;5477;48.806;9.154;2022-10-17T14:33:58;27.90;91.90
10848;DHT22;5477;48.806;9.154;2022-10-17T14:36:33;28.40;91.10
10848;DHT22;5477;48.806;9.154;2022-10-17T14:39:02;29.00;89.70
10848;DHT22;5477;48.806;9.154;2022-10-17T14:41:33;29.50;88.40
10848;DHT22;5477;48.806;9.154;2022-10-17T14:44:22;29.80;87.10
10848;DHT22;5477;48.806;9.154;2022-10-17T14:46:57;29.90;86.20
10848;DHT22;5477;48.806;9.154;2022-10-17T14:49:39;30.40;85.20
10848;DHT22;5477;48.806;9.154;2022-10-17T14:52:21;30.50;83.50
10848;DHT22;5477;48.806;9.154;2022-10-17T14:54:50;30.70;83.00
10848;DHT22;5477;48.806;9.154;2022-10-17T14:57:23;30.70;81.70
10848;DHT22;5477;48.806;9.154;2022-10-17T14:59:53;30.80;81.30
10848;DHT22;5477;48.806;9.154;2022-10-17T15:02:22;30.90;80.60
10848;DHT22;5477;48.806;9.154;2022-10-17T15:04:51;30.50;80.80
10848;DHT22;5477;48.806;9.154;2022-10-17T15:07:19;29.70;82.40
10848;DHT22;5477;48.806;9.154;2022-10-17T15:09:49;29.30;83.50
10848;DHT22;5477;48.806;9.154;2022-10-17T15:12:20;28.80;85.20
10848;DHT22;5477;48.806;9.154;2022-10-17T15:14:48;28.30;86.30
10848;DHT22;5477;48.806;9.154;2022-10-17T15:17:19;27.90;88.40
10848;DHT22;5477;48.806;9.154;2022-10-17T15:19:47;27.40;90.50
10848;DHT22;5477;48.806;9.154;2022-10-17T15:22:16;27.10;90.90
10848;DHT22;5477;48.806;9.154;2022-10-17T15:24:45;26.90;91.20
10848;DHT22;5477;48.806;9.154;2022-10-17T15:27:14;26.50;91.70
10848;DHT22;5477;48.806;9.154;2022-10-17T15:29:44;26.20;92.20
10848;DHT22;5477;48.806;9.154;2022-10-17T15:32:12;26.00;93.20
10848;DHT22;5477;48.806;9.154;2022-10-17T15:34:41;25.80;94.00
10848;DHT22;5477;48.806;9.154;2022-10-17T15:37:15;25.50;94.50
10848;DHT22;5477;48.806;9.154;2022-10-17T15:39:47;25.40;96.40
10848;DHT22;5477;48.806;9.154;2022-10-17T15:42:18;25.00;98.30
10848;DHT22;5477;48.806;9.154;2022-10-17T15:44:48;24.60;99.50
10848;DHT22;5477;48.806;9.154;2022-10-17T15:47:22;24.30;99.90
10848;DHT22;5477;48.806;9.154;2022-10-17T15:49:52;24.20;99.90
10848;DHT22;5477;48.806;9.154;2022-10-17T15:52:20;24.10;99.90
10848;DHT22;5477;48.806;9.154;2022-10-17T15:54:49;23.90;99.90
10848;DHT22;5477;48.806;9.154;2022-10-17T15:57:19;23.80;99.90
10848;DHT22;5477;48.806;9.154;2022-10-17T15:59:50;23.70;99.90
10848;DHT22;5477;48.806;9.154;2022-10-17T16:02:21;23.70;99.90
10848;DHT22;5477;48.806;9.154;2022-10-17T16:04:50;23.70;99.90
10848;DHT22;5477;48.806;9.154;2022-10-17T16:07:19;23.50;99.90
10848;DHT22;5477;48.806;9.154;2022-10-17T16:09:47;23.40;99.90
10848;DHT22;5477;48.806;9.154;2022-10-17T16:12:17;23.30;99.90
10848;DHT22;5477;48.806;9.154;2022-10-17T16:14:45;23.00;99.90
10848;DHT22;5477;48.806;9.154;2022-10-17T16:17:15;22.70;99.90
10848;DHT22;5477;48.806;9.154;2022-10-17T16:19:43;22.30;99.90
10848;DHT22;5477;48.806;9.154;2022-10-17T16:22:19;22.20;99.90
10848;DHT22;5477;48.806;9.154;2022-10-17T16:24:48;22.00;99.90
10848;DHT22;5477;48.806;9.154;2022-10-17T16:27:16;21.80;99.90